Details for Jet2 at EGPF




Go Back


Latest METAR
Local Time

EGPF 221150Z AUTO 28016KT 9999 -RA BKN039 10/06 Q1014
22/09/2018, 13:04:17

Description
Results
Jet2 Logo
Number of Pilots based at EGPF
3 Pilots Based here
Number of Jet2 Flights Departed from EGPF
3 Flights Departed
Number of Jet2 Flights Arrived at EGPF
1 Flights Arrived
Number of Jet2 Schedules Departing from EGPF
47 Schedules
Number of Jet2 Schedules Arriving at EGPF
49 Schedules
Number of Jet2 Schedules Departing from EGPF availible today
14 Schedules Today
Number of Jet2 Schedules Arriving at EGPF availible today
14 Schedules Today
Average Landing Rate at EGPF
-203 fpm
Jet2 Average Landing Rate at EGPF
-156 fpm
Total Fuel Purchased at EGPF by Jet2
30,110.35 kgs / 66,381.28 lbs

Pilots Based at EGPF


Pilot ID
Pilot Name
Pilot Rank
No. of Flights
No. of Flying Hours
Ross Gunn
7
12.1
Renaat Meeuws
45
69.55
Thomas Bell
460
780.58
Content